Time,TemperatureF,DewpointF,PressureIn,WindDirection,WindDirectionDegrees,WindSpeedMPH,WindSpeedGustMPH,Humidity,HourlyPrecipIn,Conditions,Clouds,dailyrainin,SoftwareType,DateUTC
2013-04-03 00:03:00,28.0,17.0,30.31,WNW,288,0.0,2.0,64,0.00,,,0.00,,2013-04-03 04:03:00,
2013-04-03 00:13:00,28.0,17.0,30.31,WNW,288,0.0,2.0,64,0.00,,,0.00,,2013-04-03 04:13:00,
2013-04-03 00:23:00,28.0,16.0,30.31,WSW,238,0.0,3.0,60,0.00,,,0.00,,2013-04-03 04:23:00,
2013-04-03 00:33:00,28.0,16.0,30.31,WSW,238,0.0,3.0,60,0.00,,,0.00,,2013-04-03 04:33:00,
2013-04-03 00:43:00,28.0,16.0,30.31,WSW,238,0.0,3.0,60,0.00,,,0.00,,2013-04-03 04:43:00,
2013-04-03 00:53:00,29.0,16.0,30.32,WSW,238,0.0,1.0,57,0.00,,,0.00,,2013-04-03 04:53:00,
2013-04-03 01:03:00,29.0,16.0,30.31,WSW,238,0.0,1.0,57,0.00,,,0.00,,2013-04-03 05:03:00,
2013-04-03 01:12:00,29.0,16.0,30.31,WSW,238,0.0,1.0,57,0.00,,,0.00,,2013-04-03 05:12:00,
2013-04-03 01:22:00,28.0,16.0,30.31,WSW,238,0.0,2.0,61,0.00,,,0.00,,2013-04-03 05:22:00,
2013-04-03 01:32:00,27.0,17.0,30.31,WSW,238,0.0,2.0,65,0.00,,,0.00,,2013-04-03 05:32:00,
2013-04-03 01:42:00,27.0,17.0,30.31,WSW,238,0.0,2.0,65,0.00,,,0.00,,2013-04-03 05:42:00,
2013-04-03 01:52:00,26.0,16.0,30.32,WSW,238,0.0,2.0,66,0.00,,,0.00,,2013-04-03 05:52:00,
2013-04-03 02:02:00,26.0,18.0,30.32,WSW,238,0.0,2.0,70,0.00,,,0.00,,2013-04-03 06:02:00,
2013-04-03 02:12:00,26.0,18.0,30.32,WSW,238,0.0,2.0,70,0.00,,,0.00,,2013-04-03 06:12:00,
2013-04-03 02:22:00,26.0,16.0,30.32,WSW,238,0.0,0.0,65,0.00,,,0.00,,2013-04-03 06:22:00,
2013-04-03 02:32:00,26.0,18.0,30.33,WSW,238,0.0,0.0,72,0.00,,,0.00,,2013-04-03 06:32:00,
2013-04-03 02:42:00,26.0,18.0,30.33,WSW,238,0.0,0.0,72,0.00,,,0.00,,2013-04-03 06:42:00,
2013-04-03 02:52:00,25.0,17.0,30.34,WSW,238,0.0,1.0,72,0.00,,,0.00,,2013-04-03 06:52:00,
2013-04-03 03:02:00,25.0,17.0,30.34,WSW,238,0.0,1.0,71,0.00,,,0.00,,2013-04-03 07:02:00,
2013-04-03 03:12:00,25.0,17.0,30.34,WSW,238,0.0,1.0,71,0.00,,,0.00,,2013-04-03 07:12:00,
2013-04-03 03:23:00,25.0,17.0,30.34,WSW,238,0.0,0.0,72,0.00,,,0.00,,2013-04-03 07:23:00,
2013-04-03 03:33:00,24.0,16.0,30.34,WSW,238,0.0,0.0,72,0.00,,,0.00,,2013-04-03 07:33:00,
2013-04-03 03:42:00,24.0,16.0,30.34,WSW,238,0.0,0.0,72,0.00,,,0.00,,2013-04-03 07:42:00,
2013-04-03 03:52:00,24.0,17.0,30.34,WSW,238,0.0,0.0,73,0.00,,,0.00,,2013-04-03 07:52:00,
2013-04-03 04:03:00,23.0,16.0,30.34,WSW,238,0.0,1.0,75,0.00,,,0.00,,2013-04-03 08:03:00,
2013-04-03 04:12:00,23.0,16.0,30.34,WSW,238,0.0,1.0,75,0.00,,,0.00,,2013-04-03 08:12:00,
2013-04-03 04:22:00,22.0,16.0,30.34,WSW,238,0.0,0.0,78,0.00,,,0.00,,2013-04-03 08:22:00,
2013-04-03 04:33:00,22.0,16.0,30.34,WSW,238,0.0,0.0,78,0.00,,,0.00,,2013-04-03 08:33:00,
2013-04-03 04:43:00,22.0,16.0,30.34,WSW,238,0.0,0.0,78,0.00,,,0.00,,2013-04-03 08:43:00,
2013-04-03 04:52:00,22.0,16.0,30.34,WSW,238,0.0,0.0,78,0.00,,,0.00,,2013-04-03 08:52:00,
2013-04-03 05:02:00,21.0,16.0,30.35,WSW,238,0.0,1.0,81,0.00,,,0.00,,2013-04-03 09:02:00,
2013-04-03 05:12:00,21.0,16.0,30.35,WSW,238,0.0,1.0,81,0.00,,,0.00,,2013-04-03 09:12:00,
2013-04-03 05:22:00,21.0,16.0,30.35,WSW,238,1.0,3.0,81,0.00,,,0.00,,2013-04-03 09:22:00,
2013-04-03 05:33:00,22.0,16.0,30.36,WSW,238,0.0,2.0,79,0.00,,,0.00,,2013-04-03 09:33:00,
2013-04-03 05:43:00,22.0,16.0,30.36,WSW,238,0.0,2.0,79,0.00,,,0.00,,2013-04-03 09:43:00,
2013-04-03 05:53:00,22.0,16.0,30.37,WSW,238,0.0,1.0,79,0.00,,,0.00,,2013-04-03 09:53:00,
2013-04-03 06:03:00,22.0,16.0,30.37,WSW,238,1.0,2.0,79,0.00,,,0.00,,2013-04-03 10:03:00,
2013-04-03 06:12:00,22.0,16.0,30.37,WSW,238,1.0,2.0,79,0.00,,,0.00,,2013-04-03 10:12:00,
2013-04-03 06:22:00,23.0,17.0,30.37,WSW,238,1.0,3.0,76,0.00,,,0.00,,2013-04-03 10:22:00,
2013-04-03 06:33:00,23.0,17.0,30.37,WSW,247,1.0,2.0,77,0.00,,,0.00,,2013-04-03 10:33:00,
2013-04-03 06:43:00,23.0,17.0,30.37,WSW,247,1.0,2.0,77,0.00,,,0.00,,2013-04-03 10:43:00,
2013-04-03 06:52:00,23.0,17.0,30.38,WSW,247,1.0,2.0,76,0.00,,,0.00,,2013-04-03 10:52:00,
2013-04-03 07:02:00,23.0,17.0,30.38,WSW,247,1.0,2.0,76,0.00,,,0.00,,2013-04-03 11:02:00,
2013-04-03 07:12:00,23.0,17.0,30.38,WSW,247,1.0,2.0,76,0.00,,,0.00,,2013-04-03 11:12:00,
2013-04-03 07:23:00,23.0,17.0,30.39,WSW,247,1.0,2.0,76,0.00,,,0.00,,2013-04-03 11:23:00,
2013-04-03 07:32:00,23.0,17.0,30.39,WSW,247,1.0,3.0,76,0.00,,,0.00,,2013-04-03 11:32:00,
2013-04-03 07:42:00,23.0,17.0,30.39,WSW,247,1.0,3.0,76,0.00,,,0.00,,2013-04-03 11:42:00,
2013-04-03 07:52:00,23.0,17.0,30.40,WSW,247,0.0,2.0,76,0.00,,,0.00,,2013-04-03 11:52:00,
2013-04-03 08:02:00,23.0,17.0,30.40,WSW,247,1.0,2.0,76,0.00,,,0.00,,2013-04-03 12:02:00,
2013-04-03 08:13:00,23.0,17.0,30.40,WSW,247,1.0,2.0,76,0.00,,,0.00,,2013-04-03 12:13:00,
2013-04-03 08:22:00,23.0,17.0,30.40,WSW,247,0.0,3.0,77,0.00,,,0.00,,2013-04-03 12:22:00,
2013-04-03 08:33:00,24.0,18.0,30.40,WSW,247,1.0,2.0,78,0.00,,,0.00,,2013-04-03 12:33:00,
2013-04-03 08:42:00,24.0,18.0,30.40,WSW,247,1.0,2.0,78,0.00,,,0.00,,2013-04-03 12:42:00,
2013-04-03 08:52:00,25.0,19.0,30.40,WSW,247,0.0,3.0,77,0.00,,,0.00,,2013-04-03 12:52:00,
2013-04-03 09:02:00,27.0,21.0,30.40,West,265,1.0,4.0,77,0.00,,,0.00,,2013-04-03 13:02:00,
2013-04-03 09:13:00,27.0,21.0,30.40,West,265,1.0,4.0,77,0.00,,,0.00,,2013-04-03 13:13:00,
2013-04-03 09:22:00,30.0,22.0,30.40,West,269,5.0,10.0,72,0.00,,,0.00,,2013-04-03 13:22:00,
2013-04-03 09:32:00,32.0,24.0,30.41,WNW,284,4.0,11.0,71,0.00,,,0.00,,2013-04-03 13:32:00,
2013-04-03 09:42:00,32.0,24.0,30.41,WNW,284,4.0,11.0,71,0.00,,,0.00,,2013-04-03 13:42:00,
2013-04-03 09:52:00,33.0,23.0,30.41,WNW,292,4.0,8.0,67,0.00,,,0.00,,2013-04-03 13:52:00,
2013-04-03 10:02:00,35.0,25.0,30.42,WNW,302,3.0,11.0,67,0.00,,,0.00,,2013-04-03 14:02:00,
2013-04-03 10:13:00,35.0,25.0,30.42,WNW,302,3.0,11.0,67,0.00,,,0.00,,2013-04-03 14:13:00,
2013-04-03 10:22:00,37.0,26.0,30.42,NW,317,6.0,11.0,64,0.00,,,0.00,,2013-04-03 14:22:00,
2013-04-03 10:32:00,37.0,25.0,30.42,WNW,298,5.0,12.0,61,0.00,,,0.00,,2013-04-03 14:32:00,
2013-04-03 10:43:00,37.0,25.0,30.42,WNW,298,5.0,12.0,61,0.00,,,0.00,,2013-04-03 14:43:00,
2013-04-03 10:52:00,38.0,23.0,30.43,NNW,327,5.0,11.0,54,0.00,,,0.00,,2013-04-03 14:52:00,
2013-04-03 11:02:00,38.0,21.0,30.44,WNW,303,6.0,12.0,50,0.00,,,0.00,,2013-04-03 15:02:00,
2013-04-03 11:13:00,38.0,21.0,30.44,WNW,303,6.0,12.0,50,0.00,,,0.00,,2013-04-03 15:13:00,
2013-04-03 11:23:00,39.0,21.0,30.44,West,279,2.0,11.0,48,0.00,,,0.00,,2013-04-03 15:23:00,
2013-04-03 11:33:00,39.0,20.0,30.44,WNW,299,4.0,9.0,46,0.00,,,0.00,,2013-04-03 15:33:00,
2013-04-03 11:43:00,39.0,20.0,30.44,WNW,299,4.0,9.0,46,0.00,,,0.00,,2013-04-03 15:43:00,
2013-04-03 11:53:00,40.0,20.0,30.44,North,10,4.0,12.0,44,0.00,,,0.00,,2013-04-03 15:53:00,
2013-04-03 12:03:00,40.0,18.0,30.45,North,360,3.0,15.0,41,0.00,,,0.00,,2013-04-03 16:03:00,
2013-04-03 12:13:00,40.0,18.0,30.45,North,360,3.0,15.0,41,0.00,,,0.00,,2013-04-03 16:13:00,
2013-04-03 12:25:00,41.0,19.0,30.45,West,273,4.0,11.0,41,0.00,,,0.00,,2013-04-03 16:25:00,
2013-04-03 12:33:00,42.0,16.0,30.46,WNW,289,6.0,13.0,35,0.00,,,0.00,,2013-04-03 16:33:00,
2013-04-03 12:52:00,42.0,15.0,30.45,North,355,10.0,14.0,33,0.00,,,0.00,,2013-04-03 16:52:00,
2013-04-03 13:03:00,42.0,15.0,30.45,North,355,10.0,14.0,33,0.00,,,0.00,,2013-04-03 17:03:00,
2013-04-03 13:14:00,42.0,15.0,30.45,North,355,10.0,14.0,33,0.00,,,0.00,,2013-04-03 17:14:00,
2013-04-03 13:23:00,43.0,14.0,30.45,NW,321,3.0,13.0,30,0.00,,,0.00,,2013-04-03 17:23:00,
2013-04-03 13:34:00,44.0,16.0,30.45,North,5,6.0,14.0,32,0.00,,,0.00,,2013-04-03 17:34:00,
2013-04-03 13:46:00,44.0,16.0,30.45,North,5,6.0,14.0,32,0.00,,,0.00,,2013-04-03 17:46:00,
2013-04-03 13:53:00,45.0,13.0,30.44,North,355,8.0,14.0,27,0.00,,,0.00,,2013-04-03 17:53:00,
2013-04-03 14:03:00,44.0,13.0,30.43,NW,316,4.0,13.0,28,0.00,,,0.00,,2013-04-03 18:03:00,
2013-04-03 14:13:00,44.0,13.0,30.43,NW,316,4.0,13.0,28,0.00,,,0.00,,2013-04-03 18:13:00,
2013-04-03 14:23:00,44.0,14.0,30.44,North,350,3.0,10.0,29,0.00,,,0.00,,2013-04-03 18:23:00,
2013-04-03 14:33:00,46.0,15.0,30.44,NW,308,3.0,11.0,28,0.00,,,0.00,,2013-04-03 18:33:00,
2013-04-03 14:43:00,46.0,15.0,30.44,NW,308,3.0,11.0,28,0.00,,,0.00,,2013-04-03 18:43:00,
2013-04-03 14:52:00,46.0,15.0,30.45,WNW,297,2.0,10.0,28,0.00,,,0.00,,2013-04-03 18:52:00,
2013-04-03 15:03:00,45.0,15.0,30.45,West,265,5.0,14.0,29,0.00,,,0.00,,2013-04-03 19:03:00,
2013-04-03 15:12:00,45.0,15.0,30.45,West,265,5.0,14.0,29,0.00,,,0.00,,2013-04-03 19:12:00,
2013-04-03 15:22:00,46.0,14.0,30.45,SW,232,4.0,10.0,27,0.00,,,0.00,,2013-04-03 19:22:00,
2013-04-03 15:32:00,45.0,14.0,30.43,East,79,0.0,4.0,28,0.00,,,0.00,,2013-04-03 19:32:00,
2013-04-03 15:42:00,45.0,14.0,30.43,East,79,0.0,4.0,28,0.00,,,0.00,,2013-04-03 19:42:00,
2013-04-03 15:52:00,46.0,11.0,30.42,NW,304,1.0,10.0,24,0.00,,,0.00,,2013-04-03 19:52:00,
2013-04-03 16:02:00,46.0,13.0,30.42,West,271,5.0,11.0,26,0.00,,,0.00,,2013-04-03 20:02:00,
2013-04-03 16:13:00,46.0,13.0,30.42,West,271,5.0,11.0,26,0.00,,,0.00,,2013-04-03 20:13:00,
2013-04-03 16:23:00,47.0,14.0,30.42,WSW,245,1.0,8.0,26,0.00,,,0.00,,2013-04-03 20:23:00,
2013-04-03 16:33:00,48.0,16.0,30.42,NNE,21,5.0,12.0,28,0.00,,,0.00,,2013-04-03 20:33:00,
2013-04-03 16:42:00,48.0,16.0,30.42,NNE,21,5.0,12.0,28,0.00,,,0.00,,2013-04-03 20:42:00,
2013-04-03 16:52:00,48.0,16.0,30.41,NW,312,4.0,8.0,27,0.00,,,0.00,,2013-04-03 20:52:00,
2013-04-03 17:03:00,48.0,13.0,30.40,NNW,348,2.0,7.0,24,0.00,,,0.00,,2013-04-03 21:03:00,
2013-04-03 17:12:00,48.0,13.0,30.40,NNW,348,2.0,7.0,24,0.00,,,0.00,,2013-04-03 21:12:00,
2013-04-03 17:22:00,48.0,13.0,30.40,NNW,348,2.0,7.0,24,0.00,,,0.00,,2013-04-03 21:22:00,
2013-04-03 17:33:00,48.0,14.0,30.41,NNE,22,3.0,8.0,25,0.00,,,0.00,,2013-04-03 21:33:00,
2013-04-03 17:42:00,48.0,14.0,30.41,NNE,22,3.0,8.0,25,0.00,,,0.00,,2013-04-03 21:42:00,
2013-04-03 17:52:00,47.0,12.0,30.41,North,355,3.0,9.0,24,0.00,,,0.00,,2013-04-03 21:52:00,
2013-04-03 18:02:00,47.0,12.0,30.41,NW,311,2.0,6.0,24,0.00,,,0.00,,2013-04-03 22:02:00,
2013-04-03 18:13:00,47.0,12.0,30.41,NW,311,2.0,6.0,24,0.00,,,0.00,,2013-04-03 22:13:00,
2013-04-03 18:22:00,47.0,13.0,30.40,ENE,61,4.0,8.0,25,0.00,,,0.00,,2013-04-03 22:22:00,
2013-04-03 18:33:00,46.0,12.0,30.40,NE,54,5.0,9.0,25,0.00,,,0.00,,2013-04-03 22:33:00,
2013-04-03 18:42:00,46.0,12.0,30.40,NE,54,5.0,9.0,25,0.00,,,0.00,,2013-04-03 22:42:00,
2013-04-03 18:52:00,46.0,13.0,30.40,East,90,2.0,9.0,26,0.00,,,0.00,,2013-04-03 22:52:00,
2013-04-03 19:02:00,45.0,13.0,30.40,ENE,75,2.0,8.0,27,0.00,,,0.00,,2013-04-03 23:02:00,
2013-04-03 19:12:00,45.0,13.0,30.40,ENE,75,2.0,8.0,27,0.00,,,0.00,,2013-04-03 23:12:00,
2013-04-03 19:22:00,45.0,12.0,30.40,NE,53,4.0,8.0,26,0.00,,,0.00,,2013-04-03 23:22:00,
2013-04-03 19:33:00,45.0,12.0,30.40,NE,55,0.0,4.0,26,0.00,,,0.00,,2013-04-03 23:33:00,
2013-04-03 19:43:00,45.0,12.0,30.40,NE,55,0.0,4.0,26,0.00,,,0.00,,2013-04-03 23:43:00,
2013-04-03 19:53:00,44.0,12.0,30.40,ENE,67,2.0,5.0,27,0.00,,,0.00,,2013-04-03 23:53:00,
2013-04-03 20:03:00,43.0,14.0,30.40,ENE,64,1.0,8.0,30,0.00,,,0.00,,2013-04-04 00:03:00,
2013-04-03 20:12:00,43.0,14.0,30.40,ENE,64,1.0,8.0,30,0.00,,,0.00,,2013-04-04 00:12:00,
2013-04-03 20:22:00,42.0,12.0,30.39,ENE,61,3.0,5.0,29,0.00,,,0.00,,2013-04-04 00:22:00,
2013-04-03 20:32:00,41.0,13.0,30.40,ENE,77,0.0,6.0,32,0.00,,,0.00,,2013-04-04 00:32:00,
2013-04-03 20:43:00,41.0,13.0,30.40,ENE,77,0.0,6.0,32,0.00,,,0.00,,2013-04-04 00:43:00,
2013-04-03 20:52:00,41.0,17.0,30.40,ENE,77,0.0,2.0,38,0.00,,,0.00,,2013-04-04 00:52:00,
2013-04-03 21:02:00,40.0,18.0,30.40,ENE,77,1.0,3.0,40,0.00,,,0.00,,2013-04-04 01:02:00,
2013-04-03 21:12:00,40.0,18.0,30.40,ENE,77,1.0,3.0,40,0.00,,,0.00,,2013-04-04 01:12:00,
2013-04-03 21:22:00,40.0,19.0,30.40,ENE,77,0.0,1.0,42,0.00,,,0.00,,2013-04-04 01:22:00,
2013-04-03 21:32:00,40.0,19.0,30.40,ENE,77,0.0,1.0,42,0.00,,,0.00,,2013-04-04 01:32:00,
2013-04-03 21:43:00,40.0,19.0,30.40,ENE,77,0.0,1.0,42,0.00,,,0.00,,2013-04-04 01:43:00,
2013-04-03 21:52:00,38.0,17.0,30.40,ENE,77,0.0,2.0,42,0.00,,,0.00,,2013-04-04 01:52:00,
2013-04-03 22:02:00,37.0,17.0,30.40,ENE,77,0.0,1.0,44,0.00,,,0.00,,2013-04-04 02:02:00,
2013-04-03 22:12:00,37.0,17.0,30.40,ENE,77,0.0,1.0,44,0.00,,,0.00,,2013-04-04 02:12:00,
2013-04-03 22:22:00,36.0,18.0,30.40,ENE,77,0.0,0.0,47,0.00,,,0.00,,2013-04-04 02:22:00,
2013-04-03 22:32:00,36.0,17.0,30.40,ENE,77,0.0,0.0,45,0.00,,,0.00,,2013-04-04 02:32:00,
2013-04-03 22:42:00,36.0,17.0,30.40,ENE,77,0.0,0.0,45,0.00,,,0.00,,2013-04-04 02:42:00,
2013-04-03 22:52:00,36.0,17.0,30.40,ENE,77,0.0,0.0,45,0.00,,,0.00,,2013-04-04 02:52:00,
2013-04-03 23:02:00,35.0,19.0,30.40,ENE,77,1.0,3.0,52,0.00,,,0.00,,2013-04-04 03:02:00,
2013-04-03 23:12:00,35.0,19.0,30.40,ENE,77,1.0,3.0,52,0.00,,,0.00,,2013-04-04 03:12:00,
2013-04-03 23:22:00,34.0,17.0,30.40,East,90,3.0,9.0,50,0.00,,,0.00,,2013-04-04 03:22:00,
2013-04-03 23:45:00,34.0,18.0,30.40,SE,130,2.0,7.0,52,0.00,,,0.00,,2013-04-04 03:45:00,
2013-04-03 23:53:00,33.0,18.0,30.40,SE,127,2.0,7.0,53,0.00,,,0.00,,2013-04-04 03:53:00,